Time;durP1;ratioP1;P1;durP2;ratioP2;P2;SDS_P1;SDS_P2;PMS_P1;PMS_P2;Temp;Humidity;BMP_temperature;BMP_pressure;BME280_temperature;BME280_humidity;BME280_pressure;Samples;Min_cycle;Max_cycle;Signal;HPM_P1;HPM_P2
2022/06/23 00:00:28;;;;;;;9.75;3.13;;;23.80;79.40;;;;;;5021233;28;20028;-63
2022/06/23 00:02:54;;;;;;;7.10;2.72;;;23.80;79.50;;;;;;5033989;28;20496;-62
2022/06/23 00:05:21;;;;;;;13.50;3.30;;;23.80;79.60;;;;;;5016576;28;20356;-63
2022/06/23 00:07:52;;;;;;;13.88;3.22;;;23.80;79.70;;;;;;5017498;28;20025;-62
2022/06/23 00:10:23;;;;;;;7.43;3.10;;;23.80;79.70;;;;;;5027711;28;20017;-63
2022/06/23 00:12:48;;;;;;;15.57;3.55;;;23.70;79.80;;;;;;5048334;28;20055;-63
2022/06/23 00:15:20;;;;;;;7.15;2.67;;;23.70;79.80;;;;;;5023056;28;20025;-62
2022/06/23 00:17:56;;;;;;;9.73;2.85;;;23.70;79.80;;;;;;5047250;28;20041;-63
2022/06/23 00:20:52;;;;;;;6.90;2.97;;;23.70;79.70;;;;;;5042859;28;20028;-63
2022/06/23 00:23:32;;;;;;;11.18;2.65;;;23.70;79.60;;;;;;5028280;28;20041;-62
2022/06/23 00:26:07;;;;;;;11.07;3.10;;;23.70;79.80;;;;;;4997101;28;20033;-62
2022/06/23 00:28:55;;;;;;;6.03;2.43;;;23.60;80.40;;;;;;5036841;28;20021;-62
2022/06/23 00:31:24;;;;;;;8.70;3.55;;;23.60;79.80;;;;;;5032958;28;20580;-62
2022/06/23 00:33:49;;;;;;;11.95;2.88;;;23.60;79.90;;;;;;5048706;28;20112;-62
2022/06/23 00:36:25;;;;;;;8.90;2.53;;;23.60;79.90;;;;;;5012713;28;20461;-62
2022/06/23 00:38:50;;;;;;;13.52;3.45;;;23.60;79.90;;;;;;5034809;28;20033;-62
2022/06/23 00:41:18;;;;;;;12.77;3.35;;;23.60;79.80;;;;;;5018392;28;20112;-62
2022/06/23 00:43:44;;;;;;;11.20;3.90;;;23.60;79.70;;;;;;5017697;28;20037;-62
2022/06/23 00:46:17;;;;;;;11.30;3.08;;;23.50;79.70;;;;;;5027105;28;20029;-62
2022/06/23 00:49:14;;;;;;;11.13;3.05;;;23.50;79.80;;;;;;5044308;28;20029;-62
2022/06/23 00:51:48;;;;;;;9.30;3.42;;;23.50;79.80;;;;;;5032082;28;20245;-62
2022/06/23 00:54:21;;;;;;;11.02;3.40;;;23.50;79.90;;;;;;5028185;28;20080;-62
2022/06/23 00:57:15;;;;;;;5.63;2.70;;;23.50;80.00;;;;;;5011802;28;20142;-62
2022/06/23 00:59:47;;;;;;;7.97;2.72;;;23.50;80.00;;;;;;5012776;28;20251;-62
2022/06/23 01:02:15;;;;;;;8.18;2.80;;;23.40;80.00;;;;;;5029950;28;20029;-62
2022/06/23 01:04:42;;;;;;;7.90;2.53;;;23.40;80.10;;;;;;5023768;28;20033;-62
2022/06/23 01:07:17;;;;;;;9.85;2.42;;;23.40;80.20;;;;;;5041219;28;20013;-62
2022/06/23 01:09:46;;;;;;;6.85;2.50;;;23.40;80.30;;;;;;5024907;28;20411;-62
2022/06/23 01:12:19;;;;;;;7.97;2.90;;;23.40;80.30;;;;;;5016288;28;20055;-62
2022/06/23 01:14:57;;;;;;;8.30;2.72;;;23.30;80.20;;;;;;5035420;28;20017;-62
2022/06/23 01:17:36;;;;;;;8.75;2.55;;;23.30;80.30;;;;;;5028160;28;20025;-62
2022/06/23 01:20:22;;;;;;;7.35;3.13;;;23.30;80.30;;;;;;5022486;28;20100;-62
2022/06/23 01:22:56;;;;;;;11.35;3.15;;;23.30;80.40;;;;;;5028733;28;20108;-62
2022/06/23 01:25:40;;;;;;;7.88;3.42;;;23.30;80.30;;;;;;4994288;28;20155;-62
2022/06/23 01:28:08;;;;;;;7.47;3.15;;;23.30;80.30;;;;;;5044260;28;20041;-62
2022/06/23 01:30:46;;;;;;;10.40;3.55;;;23.30;80.20;;;;;;5047836;28;20025;-62
2022/06/23 01:33:22;;;;;;;7.35;3.10;;;23.30;80.20;;;;;;5029721;28;20060;-62
2022/06/23 01:35:53;;;;;;;7.38;2.70;;;23.20;80.30;;;;;;5025132;28;20037;-62
2022/06/23 01:38:46;;;;;;;8.63;2.80;;;23.20;80.30;;;;;;5046504;28;20045;-62
2022/06/23 01:41:19;;;;;;;6.55;3.08;;;23.20;80.30;;;;;;5014883;28;20164;-62
2022/06/23 01:43:59;;;;;;;9.25;3.05;;;23.20;80.40;;;;;;5031652;28;20372;-62
2022/06/23 01:46:30;;;;;;;4.30;2.30;;;23.20;80.50;;;;;;5027424;28;20025;-62
2022/06/23 01:49:03;;;;;;;6.82;2.92;;;23.20;80.50;;;;;;5010001;28;20090;-62
2022/06/23 01:51:30;;;;;;;9.35;2.67;;;23.20;80.60;;;;;;5010316;28;20029;-62
2022/06/23 01:54:07;;;;;;;7.60;3.30;;;23.20;80.60;;;;;;5029342;28;20025;-62
2022/06/23 01:57:00;;;;;;;11.32;4.00;;;23.10;80.60;;;;;;5054118;28;20025;-62
2022/06/23 01:59:30;;;;;;;6.38;3.25;;;23.10;80.70;;;;;;5026272;28;20420;-62
2022/06/23 02:02:05;;;;;;;4.28;2.42;;;23.10;80.80;;;;;;5047267;28;20235;-62
2022/06/23 02:04:39;;;;;;;6.40;2.80;;;23.10;80.70;;;;;;5031769;28;20484;-62
2022/06/23 02:07:15;;;;;;;10.13;2.90;;;23.10;80.70;;;;;;5036105;28;20048;-62
2022/06/23 02:09:52;;;;;;;7.85;2.80;;;23.10;80.60;;;;;;4997745;28;20365;-62
2022/06/23 02:12:25;;;;;;;6.85;2.58;;;23.00;80.60;;;;;;5023810;28;20021;-62
2022/06/23 02:15:15;;;;;;;7.13;2.90;;;23.00;80.70;;;;;;5035582;28;20033;-62
2022/06/23 02:17:48;;;;;;;8.05;2.65;;;23.00;80.70;;;;;;5028744;28;20048;-62
2022/06/23 02:20:21;;;;;;;8.88;2.80;;;23.00;80.80;;;;;;5027789;28;20362;-62
2022/06/23 02:22:47;;;;;;;7.97;2.85;;;23.00;80.90;;;;;;5046890;28;20032;-62
2022/06/23 02:25:15;;;;;;;7.00;2.88;;;22.90;80.90;;;;;;5035525;28;20136;-62
2022/06/23 02:27:47;;;;;;;7.70;2.70;;;23.00;81.00;;;;;;5016536;28;20431;-62
2022/06/23 02:30:27;;;;;;;4.78;2.28;;;22.90;80.90;;;;;;4999684;28;20149;-62
2022/06/23 02:33:23;;;;;;;4.47;2.53;;;22.90;80.90;;;;;;5035612;28;20041;-62
2022/06/23 02:35:55;;;;;;;;;;;22.90;80.90;;;;;;5027101;28;20075;-62
2022/06/23 02:38:24;;;;;;;5.47;2.55;;;22.90;81.00;;;;;;5052253;28;19955;-62
2022/06/23 02:41:02;;;;;;;5.20;2.35;;;22.90;81.00;;;;;;5031414;28;20025;-62
2022/06/23 02:43:33;;;;;;;8.55;2.67;;;22.90;81.00;;;;;;5049459;28;20033;-62
2022/06/23 02:46:12;;;;;;;8.40;3.50;;;22.90;81.00;;;;;;5035258;28;20032;-62
2022/06/23 02:48:49;;;;;;;4.40;2.53;;;22.90;81.10;;;;;;5043951;28;20024;-62
2022/06/23 02:51:36;;;;;;;6.30;2.55;;;22.80;81.10;;;;;;5028573;28;20060;-63
2022/06/23 02:54:06;;;;;;;6.63;3.13;;;22.80;81.10;;;;;;5042475;28;20052;-67
2022/06/23 02:56:44;;;;;;;9.35;3.83;;;22.80;81.20;;;;;;5028099;28;20055;-63
2022/06/23 02:59:39;;;;;;;8.18;5.00;;;22.80;81.30;;;;;;5027835;28;20029;-64
2022/06/23 03:02:32;;;;;;;8.10;3.92;;;22.80;81.30;;;;;;5025033;28;20048;-66
2022/06/23 03:05:07;;;;;;;8.50;3.80;;;22.80;81.40;;;;;;5014049;28;20079;-62
2022/06/23 03:07:42;;;;;;;7.18;3.60;;;22.70;81.50;;;;;;5047268;28;20266;-61
2022/06/23 03:10:17;;;;;;;8.77;3.40;;;22.70;81.60;;;;;;5029287;28;20044;-62
2022/06/23 03:12:49;;;;;;;8.02;3.25;;;22.70;81.60;;;;;;5032899;28;20029;-62
2022/06/23 03:15:27;;;;;;;10.48;4.40;;;22.70;81.70;;;;;;5011897;28;20444;-62
2022/06/23 03:18:06;;;;;;;8.88;3.17;;;22.70;82.10;;;;;;4994401;28;20034;-62
2022/06/23 03:20:44;;;;;;;9.45;3.45;;;22.70;81.60;;;;;;5010055;28;20162;-62
2022/06/23 03:23:27;;;;;;;8.52;3.45;;;22.70;81.50;;;;;;5028386;28;20528;-62
2022/06/23 03:26:18;;;;;;;7.97;3.10;;;22.70;81.40;;;;;;5050240;28;20028;-62
2022/06/23 03:28:52;;;;;;;7.47;3.35;;;22.70;81.50;;;;;;5044744;28;20021;-63
2022/06/23 03:31:28;;;;;;;10.27;3.72;;;22.70;81.60;;;;;;5030834;28;20108;-62
2022/06/23 03:33:59;;;;;;;7.53;3.58;;;22.70;81.80;;;;;;5048105;28;20083;-62
2022/06/23 03:36:30;;;;;;;13.35;3.97;;;22.70;81.80;;;;;;5031742;28;20180;-62
2022/06/23 03:41:51;;;;;;;9.43;4.10;;;22.60;81.90;;;;;;5033312;28;20043;-62
2022/06/23 03:44:29;;;;;;;11.75;5.22;;;22.60;81.90;;;;;;5013659;28;20036;-62
2022/06/23 03:46:58;;;;;;;11.13;4.68;;;22.60;82.00;;;;;;5033140;28;20362;-62
2022/06/23 03:49:47;;;;;;;8.60;4.40;;;22.60;82.10;;;;;;5015087;28;20490;-62
2022/06/23 03:52:26;;;;;;;8.75;3.85;;;22.60;82.20;;;;;;5031524;28;20401;-62
2022/06/23 03:55:08;;;;;;;6.50;3.97;;;22.60;82.10;;;;;;5014353;28;21995;-62
2022/06/23 03:57:41;;;;;;;8.60;3.78;;;22.50;82.10;;;;;;5030044;28;20108;-62
2022/06/23 04:00:22;;;;;;;8.75;3.75;;;22.50;82.10;;;;;;5014372;28;20140;-63
2022/06/23 04:02:53;;;;;;;11.82;3.45;;;22.50;82.10;;;;;;5031256;28;20029;-62
2022/06/23 04:05:25;;;;;;;6.15;3.67;;;22.60;82.20;;;;;;5026970;28;20476;-62
2022/06/23 04:08:00;;;;;;;5.88;3.45;;;22.50;82.10;;;;;;5028412;28;20139;-62
2022/06/23 04:10:40;;;;;;;12.32;3.65;;;22.50;82.10;;;;;;5030236;28;20380;-62
2022/06/23 04:13:13;;;;;;;11.75;3.83;;;22.50;82.10;;;;;;5038762;28;20119;-62
2022/06/23 04:15:39;;;;;;;7.60;3.95;;;22.50;82.00;;;;;;5029449;28;20113;-62
2022/06/23 04:18:06;;;;;;;8.27;2.95;;;22.50;82.20;;;;;;5032896;28;20108;-62
2022/06/23 04:20:44;;;;;;;9.68;3.35;;;22.50;82.30;;;;;;5004309;28;20063;-62
2022/06/23 04:23:18;;;;;;;8.90;4.05;;;22.40;82.30;;;;;;5028927;28;20021;-63
2022/06/23 04:25:55;;;;;;;10.40;3.92;;;22.50;82.30;;;;;;5012162;28;20052;-62
2022/06/23 04:28:26;;;;;;;8.38;3.40;;;22.50;82.30;;;;;;5029355;28;20113;-62
2022/06/23 04:30:53;;;;;;;9.85;3.78;;;22.50;82.30;;;;;;5016355;28;20029;-62
2022/06/23 04:33:20;;;;;;;30.23;5.97;;;22.50;82.20;;;;;;5021556;28;20699;-62
2022/06/23 04:35:48;;;;;;;59.45;7.53;;;22.50;82.20;;;;;;5013293;28;20021;-62
2022/06/23 04:38:16;;;;;;;35.60;5.05;;;22.50;82.20;;;;;;5028155;28;20044;-62
2022/06/23 04:40:42;;;;;;;24.58;4.63;;;22.50;82.30;;;;;;5029605;28;20254;-62
2022/06/23 04:43:28;;;;;;;26.13;4.82;;;22.50;82.20;;;;;;5048049;28;20116;-62
2022/06/23 04:45:55;;;;;;;34.10;5.25;;;22.40;82.20;;;;;;5030699;28;20036;-61
2022/06/23 04:48:23;;;;;;;25.27;5.45;;;22.50;82.30;;;;;;5008004;28;20025;-62
2022/06/23 04:50:53;;;;;;;23.67;4.97;;;22.50;82.20;;;;;;5027546;28;20044;-62
2022/06/23 04:53:39;;;;;;;23.02;4.88;;;22.50;82.30;;;;;;5012440;28;20033;-62
2022/06/23 04:56:09;;;;;;;;;;;22.50;82.20;;;;;;5023357;28;20228;-62
2022/06/23 04:58:35;;;;;;;18.58;4.65;;;22.50;82.20;;;;;;5023250;28;19909;-62
2022/06/23 05:01:01;;;;;;;22.25;4.70;;;22.50;82.10;;;;;;5018214;28;20025;-62
2022/06/23 05:03:31;;;;;;;18.35;4.65;;;22.50;82.10;;;;;;5025274;28;20033;-62
2022/06/23 05:06:25;;;;;;;18.73;4.85;;;22.40;82.10;;;;;;5033630;28;20028;-62
2022/06/23 05:08:51;;;;;;;20.27;4.72;;;22.40;82.20;;;;;;5024812;28;20076;-62
2022/06/23 05:11:41;;;;;;;20.60;4.57;;;22.50;82.60;;;;;;5032810;28;20023;-62
2022/06/23 05:14:17;;;;;;;21.88;4.93;;;22.40;82.60;;;;;;5033097;28;20512;-62
2022/06/23 05:16:45;;;;;;;19.23;4.93;;;22.40;82.60;;;;;;5035943;28;20497;-62
2022/06/23 05:19:19;;;;;;;16.95;4.13;;;22.40;82.60;;;;;;5011919;28;20454;-62
2022/06/23 05:21:46;;;;;;;21.10;4.68;;;22.40;82.60;;;;;;4997701;28;20025;-62
2022/06/23 05:24:19;;;;;;;21.92;4.75;;;22.40;82.60;;;;;;5034652;28;20033;-62
2022/06/23 05:26:59;;;;;;;18.48;4.35;;;22.40;82.50;;;;;;5034244;28;20082;-62
2022/06/23 05:29:34;;;;;;;23.27;4.22;;;22.50;82.60;;;;;;5011038;28;20040;-61
2022/06/23 05:32:05;;;;;;;17.20;4.85;;;22.40;82.50;;;;;;5009533;28;20036;-62
2022/06/23 05:34:33;;;;;;;14.48;3.63;;;22.40;82.50;;;;;;5030812;28;20082;-62
2022/06/23 05:37:19;;;;;;;18.45;4.88;;;22.40;82.60;;;;;;5021025;28;20075;-62
2022/06/23 05:39:44;;;;;;;;;;;22.40;82.90;;;;;;5032977;28;20071;-62
2022/06/23 05:42:13;;;;;;;;;;;22.50;83.50;;;;;;5048947;28;20300;-62
2022/06/23 05:44:47;;;;;;;18.23;3.40;;;22.40;84.00;;;;;;5034528;28;20213;-62
2022/06/23 05:47:12;;;;;;;10.70;2.65;;;22.40;84.50;;;;;;5030331;28;20037;-62
2022/06/23 05:49:43;;;;;;;5.72;2.70;;;22.40;85.20;;;;;;5026340;28;20121;-62
2022/06/23 05:52:15;;;;;;;6.88;2.30;;;22.30;85.50;;;;;;5027311;28;20026;-62
2022/06/23 05:54:46;;;;;;;7.97;2.72;;;22.20;85.80;;;;;;5014432;28;20033;-62
2022/06/23 05:57:32;;;;;;;8.60;2.38;;;22.20;86.10;;;;;;5050742;28;20072;-62
2022/06/23 06:00:15;;;;;;;;;;;22.20;86.40;;;;;;5025917;28;20109;-62
2022/06/23 06:03:07;;;;;;;10.93;2.85;;;22.20;86.70;;;;;;5027529;28;20007;-62
2022/06/23 06:05:37;;;;;;;7.78;2.67;;;22.20;87.20;;;;;;5024922;28;20026;-62
2022/06/23 06:08:14;;;;;;;5.93;1.85;;;22.20;87.30;;;;;;5012755;28;20110;-62
2022/06/23 06:10:39;;;;;;;6.85;2.45;;;22.20;87.70;;;;;;5027085;28;20036;-62
2022/06/23 06:13:12;;;;;;;6.43;2.28;;;22.10;87.90;;;;;;5009738;28;20025;-62
2022/06/23 06:15:39;;;;;;;11.38;2.83;;;22.10;87.70;;;;;;5019211;28;20533;-62
2022/06/23 06:18:06;;;;;;;8.63;2.65;;;22.10;88.10;;;;;;5027461;28;20029;-62
2022/06/23 06:20:31;;;;;;;10.07;2.65;;;22.00;88.00;;;;;;5044269;28;20032;-62
2022/06/23 06:23:02;;;;;;;10.30;2.47;;;22.00;88.10;;;;;;5014839;28;20041;-62
2022/06/23 06:25:29;;;;;;;8.77;2.58;;;22.00;88.60;;;;;;5014420;28;20083;-63
2022/06/23 06:27:57;;;;;;;10.27;2.90;;;22.00;89.10;;;;;;5023874;28;20036;-62
2022/06/23 06:30:32;;;;;;;6.20;2.30;;;22.00;89.30;;;;;;5014540;28;20602;-62
2022/06/23 06:32:58;;;;;;;8.60;2.50;;;22.00;88.70;;;;;;5010404;28;20032;-62
2022/06/23 06:35:38;;;;;;;10.20;2.60;;;22.00;89.10;;;;;;5016790;28;20033;-62
2022/06/23 06:38:14;;;;;;;12.93;2.40;;;22.00;89.60;;;;;;5009039;28;20037;-62
2022/06/23 06:40:42;;;;;;;15.65;2.60;;;22.00;90.00;;;;;;5008015;28;20483;-62
2022/06/23 06:43:09;;;;;;;14.80;3.00;;;22.00;90.00;;;;;;5028088;28;20055;-62
2022/06/23 06:45:36;;;;;;;10.98;2.83;;;22.00;90.10;;;;;;5012972;28;20052;-62
2022/06/23 06:48:01;;;;;;;20.52;3.72;;;21.90;90.10;;;;;;5010306;28;20052;-62
2022/06/23 06:50:33;;;;;;;19.88;3.10;;;22.00;90.10;;;;;;5033056;28;20067;-62
2022/06/23 06:53:02;;;;;;;25.33;3.13;;;22.00;90.00;;;;;;5015317;28;20025;-62
2022/06/23 06:55:42;;;;;;;8.15;2.75;;;22.00;90.00;;;;;;5020292;28;20548;-62
2022/06/23 06:58:31;;;;;;;18.85;2.97;;;22.00;90.20;;;;;;5010937;28;20018;-62
2022/06/23 07:01:05;;;;;;;8.02;2.38;;;22.00;90.00;;;;;;5024590;28;20063;-62
2022/06/23 07:03:30;;;;;;;140.70;16.48;;;22.00;90.10;;;;;;5008140;28;20296;-62
2022/06/23 07:06:06;;;;;;;32.35;5.20;;;22.10;90.00;;;;;;5005522;28;20345;-62
2022/06/23 07:09:01;;;;;;;23.60;3.97;;;22.10;90.00;;;;;;5022808;28;20021;-62
2022/06/23 07:11:33;;;;;;;42.58;6.28;;;22.10;89.80;;;;;;5025201;28;20577;-62
2022/06/23 07:14:33;;;;;;;33.53;5.43;;;22.10;90.20;;;;;;5028255;28;20032;-62
2022/06/23 07:17:19;;;;;;;21.25;3.40;;;22.10;89.90;;;;;;4993565;28;20033;-62
2022/06/23 07:20:02;;;;;;;30.83;3.72;;;22.10;89.60;;;;;;5021544;28;20029;-62
2022/06/23 07:22:31;;;;;;;31.92;4.50;;;22.10;89.80;;;;;;5016791;28;20156;-63
2022/06/23 07:25:08;;;;;;;17.35;4.00;;;22.20;89.70;;;;;;5029215;28;20032;-63
2022/06/23 07:27:51;;;;;;;24.98;5.07;;;22.20;89.80;;;;;;5037300;28;20029;-62
2022/06/23 07:30:35;;;;;;;25.38;3.97;;;22.20;89.50;;;;;;5029579;28;20013;-62
2022/06/23 07:33:23;;;;;;;24.35;4.53;;;22.20;89.20;;;;;;5013747;28;20374;-62
2022/06/23 07:36:02;;;;;;;22.75;4.05;;;22.20;89.20;;;;;;5034944;28;20036;-62
2022/06/23 07:38:46;;;;;;;24.88;5.05;;;22.20;88.80;;;;;;5012060;28;20074;-62
2022/06/23 07:41:34;;;;;;;24.98;4.25;;;22.20;88.60;;;;;;5048852;28;20244;-62
2022/06/23 07:44:29;;;;;;;21.52;4.00;;;22.20;88.10;;;;;;5045771;28;20025;-62
2022/06/23 07:46:54;;;;;;;25.52;4.40;;;22.30;88.60;;;;;;5047635;28;20041;-62
2022/06/23 07:49:20;;;;;;;14.70;3.50;;;22.30;87.70;;;;;;5012248;28;20028;-62
2022/06/23 07:51:46;;;;;;;22.17;3.58;;;22.30;87.30;;;;;;5019719;28;20030;-62
2022/06/23 07:54:15;;;;;;;28.92;4.05;;;22.30;87.00;;;;;;4992741;28;20508;-62
2022/06/23 07:56:41;;;;;;;30.42;4.78;;;22.30;86.70;;;;;;5036916;28;20059;-62
2022/06/23 07:59:12;;;;;;;18.80;3.92;;;22.30;86.50;;;;;;5018469;28;20033;-62
2022/06/23 08:01:37;;;;;;;24.27;4.57;;;22.30;86.40;;;;;;5036436;28;20123;-62
2022/06/23 08:04:30;;;;;;;34.85;4.40;;;22.40;86.30;;;;;;5041354;28;20124;-62
2022/06/23 08:06:57;;;;;;;30.90;3.80;;;22.40;86.30;;;;;;5009093;28;20056;-62
2022/06/23 08:09:36;;;;;;;16.40;4.07;;;22.40;86.30;;;;;;5020378;28;20033;-63
2022/06/23 08:16:49;;;;;;;28.23;4.57;;;22.50;86.00;;;;;;5012222;28;20039;-62
2022/06/23 08:17:41;;;;;;;30.75;4.30;;;22.50;85.80;;;;;;5005916;28;20098;-62
2022/06/23 08:20:06;;;;;;;43.47;5.18;;;22.50;85.40;;;;;;4996403;28;20635;-62
2022/06/23 08:22:33;;;;;;;17.92;4.65;;;22.50;85.00;;;;;;5004579;28;20114;-62
2022/06/23 08:25:01;;;;;;;25.92;3.60;;;22.60;85.00;;;;;;5037342;28;20043;-63
2022/06/23 08:27:28;;;;;;;21.83;3.63;;;22.60;84.90;;;;;;5010039;28;20395;-62
2022/06/23 08:30:08;;;;;;;26.63;4.57;;;22.60;85.00;;;;;;5011168;28;20436;-62
2022/06/23 08:32:34;;;;;;;24.20;4.10;;;22.60;84.90;;;;;;5020138;28;20044;-62
2022/06/23 08:35:07;;;;;;;42.55;5.00;;;22.70;84.60;;;;;;5018403;28;20147;-62
2022/06/23 08:37:37;;;;;;;21.92;4.40;;;22.70;84.50;;;;;;5021706;28;20053;-62
2022/06/23 08:40:20;;;;;;;19.55;4.32;;;22.70;84.30;;;;;;5002934;28;20013;-63
2022/06/23 08:42:57;;;;;;;26.20;4.10;;;22.70;84.00;;;;;;5027207;28;20021;-62
2022/06/23 08:45:40;;;;;;;15.77;3.78;;;22.70;83.80;;;;;;5009216;28;20025;-62
2022/06/23 08:48:14;;;;;;;25.35;4.15;;;22.80;83.50;;;;;;5020124;28;20094;-62
2022/06/23 08:50:48;;;;;;;15.63;3.30;;;22.80;83.40;;;;;;5045894;28;20021;-62
2022/06/23 08:53:45;;;;;;;19.60;3.40;;;22.80;83.40;;;;;;5030055;28;20017;-62
2022/06/23 08:56:20;;;;;;;19.90;3.92;;;22.80;83.30;;;;;;4970886;28;20395;-62
2022/06/23 08:58:51;;;;;;;32.13;4.43;;;22.90;83.30;;;;;;5007035;28;20025;-62
2022/06/23 09:01:33;;;;;;;30.08;4.32;;;23.00;83.30;;;;;;5014291;28;20392;-62
2022/06/23 09:04:17;;;;;;;27.70;4.40;;;23.00;83.10;;;;;;5023107;28;20104;-62
2022/06/23 09:06:47;;;;;;;27.65;4.22;;;23.10;82.80;;;;;;5026407;28;20033;-62
2022/06/23 09:09:32;;;;;;;36.63;5.35;;;23.00;82.30;;;;;;5015679;28;20290;-62
2022/06/23 09:12:22;;;;;;;37.58;4.72;;;23.10;82.20;;;;;;5026467;28;20081;-62
2022/06/23 09:15:29;;;;;;;41.20;5.05;;;23.10;81.80;;;;;;5028075;28;20617;-62
2022/06/23 09:18:22;;;;;;;26.73;3.88;;;23.20;81.60;;;;;;5029405;28;20045;-62
2022/06/23 09:21:01;;;;;;;41.78;5.03;;;23.20;81.30;;;;;;5043537;28;20033;-63
2022/06/23 09:23:52;;;;;;;25.40;3.83;;;23.20;81.00;;;;;;5006710;28;20021;-62
2022/06/23 09:26:36;;;;;;;25.05;3.63;;;23.30;80.60;;;;;;5022817;28;20033;-63
2022/06/23 09:29:37;;;;;;;24.35;3.60;;;23.30;80.20;;;;;;5047388;28;20032;-63
2022/06/23 09:32:36;;;;;;;24.27;3.78;;;23.40;80.00;;;;;;5027632;28;20115;-62
2022/06/23 09:35:39;;;;;;;22.83;3.85;;;23.40;79.60;;;;;;5026374;28;20060;-62
2022/06/23 09:38:17;;;;;;;13.13;2.30;;;23.40;79.30;;;;;;5026143;28;20033;-63
2022/06/23 09:41:08;;;;;;;27.25;3.38;;;23.50;79.00;;;;;;5004721;28;20170;-63
2022/06/23 09:43:53;;;;;;;16.90;3.40;;;23.50;78.70;;;;;;5021264;28;20021;-62
2022/06/23 09:46:43;;;;;;;32.13;4.28;;;23.50;78.60;;;;;;5026041;28;20036;-61
2022/06/23 09:49:17;;;;;;;30.30;4.78;;;23.60;78.40;;;;;;5040701;28;20024;-61
2022/06/23 09:51:49;;;;;;;33.90;4.10;;;23.60;78.00;;;;;;5041316;28;20021;-61
2022/06/23 09:54:26;;;;;;;24.58;4.20;;;23.70;78.10;;;;;;5036721;28;20507;-64
2022/06/23 09:57:29;;;;;;;34.50;4.25;;;23.70;77.70;;;;;;5034431;28;20368;-62
2022/06/23 10:00:19;;;;;;;17.30;3.40;;;23.80;77.30;;;;;;4980823;28;20403;-62
2022/06/23 10:03:01;;;;;;;33.67;4.22;;;23.80;76.90;;;;;;4981754;28;20033;-63
2022/06/23 10:05:49;;;;;;;32.13;4.45;;;23.90;76.50;;;;;;5005285;28;20042;-62
2022/06/23 10:08:49;;;;;;;34.38;4.97;;;23.90;76.00;;;;;;5026867;28;20036;-62
2022/06/23 10:11:31;;;;;;;28.65;5.05;;;23.90;75.80;;;;;;5039803;28;20049;-64
2022/06/23 10:14:06;;;;;;;37.10;5.45;;;24.00;75.60;;;;;;5012027;28;20449;-62
2022/06/23 10:16:39;;;;;;;43.50;5.35;;;24.00;75.30;;;;;;5008812;28;20037;-63
2022/06/23 10:19:27;;;;;;;54.22;7.22;;;24.10;75.60;;;;;;5022942;28;20392;-65
2022/06/23 10:22:11;;;;;;;36.10;5.88;;;24.10;75.50;;;;;;5020704;28;20162;-62
2022/06/23 10:24:52;;;;;;;40.17;5.65;;;24.10;75.70;;;;;;5011986;28;20120;-64
2022/06/23 10:27:43;;;;;;;50.60;6.63;;;24.20;75.50;;;;;;5030545;28;20033;-62
2022/06/23 10:30:20;;;;;;;45.67;6.88;;;24.20;75.70;;;;;;5031348;28;20483;-62
2022/06/23 10:33:16;;;;;;;66.38;9.60;;;24.30;75.80;;;;;;5028221;28;20021;-62
2022/06/23 10:36:06;;;;;;;71.72;8.70;;;24.40;75.80;;;;;;5043190;28;20078;-63
2022/06/23 10:39:08;;;;;;;62.90;7.05;;;24.50;75.60;;;;;;4991908;28;20092;-62
2022/06/23 10:41:53;;;;;;;48.60;8.38;;;24.50;75.40;;;;;;5026608;28;20025;-62
2022/06/23 10:44:32;;;;;;;57.17;7.93;;;24.60;75.50;;;;;;5004337;28;20464;-62
2022/06/23 10:47:24;;;;;;;50.75;7.07;;;24.70;75.60;;;;;;5023176;28;20469;-62
2022/06/23 10:50:05;;;;;;;61.03;8.43;;;24.70;75.70;;;;;;5028046;28;20511;-63
2022/06/23 10:52:43;;;;;;;49.63;7.18;;;24.80;75.90;;;;;;5041048;28;20036;-62
2022/06/23 10:55:22;;;;;;;55.03;9.10;;;24.90;75.80;;;;;;5038890;28;20037;-62
2022/06/23 10:58:23;;;;;;;43.65;7.13;;;25.00;75.70;;;;;;5012634;28;20111;-62
2022/06/23 11:01:04;;;;;;;53.15;7.18;;;25.10;75.60;;;;;;5025380;28;20115;-62
2022/06/23 11:03:47;;;;;;;43.53;7.43;;;25.10;75.60;;;;;;5033181;28;20166;-63
2022/06/23 11:06:41;;;;;;;41.78;6.72;;;25.20;75.50;;;;;;5036885;28;20024;-62
2022/06/23 11:09:29;;;;;;;41.85;5.78;;;25.30;75.40;;;;;;5024161;28;20032;-62
2022/06/23 11:12:15;;;;;;;45.38;7.30;;;25.50;75.10;;;;;;5030404;28;20037;-62
2022/06/23 11:15:02;;;;;;;65.18;7.63;;;25.60;74.80;;;;;;5029002;28;20033;-62
2022/06/23 11:17:50;;;;;;;68.95;9.13;;;25.70;74.60;;;;;;4999709;28;20029;-62
2022/06/23 11:20:22;;;;;;;46.53;7.55;;;25.80;74.00;;;;;;4985801;28;20026;-62
2022/06/23 11:23:15;;;;;;;44.42;6.30;;;25.90;73.70;;;;;;5015224;28;20032;-62
2022/06/23 11:25:51;;;;;;;30.80;5.45;;;26.00;73.50;;;;;;5038840;28;20035;-62
2022/06/23 11:28:25;;;;;;;35.92;5.50;;;26.00;73.10;;;;;;5005270;28;20025;-62
2022/06/23 11:31:16;;;;;;;41.55;5.78;;;26.10;72.80;;;;;;5017785;28;20025;-62
2022/06/23 11:33:58;;;;;;;47.45;5.63;;;26.20;72.20;;;;;;5015325;28;20045;-61
2022/06/23 11:36:45;;;;;;;40.50;6.00;;;26.40;71.60;;;;;;4997083;28;20593;-62
2022/06/23 11:39:40;;;;;;;23.63;4.63;;;26.60;71.30;;;;;;5033806;28;20191;-62
2022/06/23 11:42:32;;;;;;;30.00;5.72;;;26.60;70.40;;;;;;5020358;28;20025;-62
2022/06/23 11:45:14;;;;;;;40.33;5.75;;;26.70;70.10;;;;;;5018537;28;20022;-62
2022/06/23 11:47:50;;;;;;;29.35;5.00;;;26.80;70.00;;;;;;5022081;28;20396;-62
2022/06/23 11:50:33;;;;;;;31.98;5.15;;;26.90;69.90;;;;;;5020868;28;20503;-62
2022/06/23 11:53:11;;;;;;;24.23;4.57;;;26.90;69.90;;;;;;5044759;28;20017;-62
2022/06/23 11:55:43;;;;;;;28.63;5.28;;;27.00;70.00;;;;;;5039842;28;20483;-62
2022/06/23 11:58:35;;;;;;;19.05;4.35;;;27.10;70.00;;;;;;5022526;28;20048;-62
2022/06/23 12:01:17;;;;;;;21.52;3.90;;;27.20;69.90;;;;;;5038321;28;20103;-62
2022/06/23 12:03:49;;;;;;;27.15;4.45;;;27.30;69.80;;;;;;5025558;28;20135;-62
2022/06/23 12:06:46;;;;;;;25.10;3.50;;;27.40;69.90;;;;;;5042505;28;20029;-62
2022/06/23 12:09:35;;;;;;;26.10;4.85;;;27.50;69.50;;;;;;5010828;28;20036;-62
2022/06/23 12:12:01;;;;;;;23.25;4.25;;;27.40;69.40;;;;;;5031923;28;20044;-62
2022/06/23 12:14:27;;;;;;;17.73;3.47;;;27.50;69.10;;;;;;5024230;28;20029;-62
2022/06/23 12:17:20;;;;;;;23.45;4.32;;;27.50;69.40;;;;;;5005895;28;20033;-62
2022/06/23 12:20:04;;;;;;;28.65;4.55;;;27.60;69.00;;;;;;5014008;28;20132;-62
2022/06/23 12:22:58;;;;;;;26.17;5.03;;;27.60;68.30;;;;;;5018913;28;20140;-62
2022/06/23 12:25:39;;;;;;;28.65;4.70;;;27.70;68.40;;;;;;5023798;28;20017;-62
2022/06/23 12:28:12;;;;;;;20.95;4.07;;;27.70;68.30;;;;;;5040597;28;20061;-62
2022/06/23 12:30:45;;;;;;;21.75;3.95;;;27.80;67.80;;;;;;5007052;28;20032;-62
2022/06/23 12:33:19;;;;;;;25.02;4.88;;;27.90;67.60;;;;;;5026320;28;20021;-62
2022/06/23 12:35:44;;;;;;;25.30;4.60;;;27.90;67.60;;;;;;5022138;28;20218;-61
2022/06/23 12:38:17;;;;;;;24.27;4.45;;;28.00;67.40;;;;;;5039780;28;20132;-62
2022/06/23 12:40:57;;;;;;;30.25;4.72;;;28.10;67.00;;;;;;4990462;28;20029;-62
2022/06/23 12:43:40;;;;;;;41.30;4.95;;;28.20;66.80;;;;;;5009535;28;20519;-62
2022/06/23 12:46:25;;;;;;;27.35;5.28;;;28.30;66.80;;;;;;5038993;28;20021;-62
2022/06/23 12:49:05;;;;;;;28.20;5.03;;;28.40;67.20;;;;;;5017383;28;20047;-62
2022/06/23 12:51:56;;;;;;;28.70;4.95;;;28.50;66.10;;;;;;5012799;28;20047;-62
2022/06/23 12:54:33;;;;;;;34.47;5.30;;;28.60;65.90;;;;;;5034604;28;20029;-62
2022/06/23 12:57:25;;;;;;;30.85;5.03;;;28.70;65.20;;;;;;5035625;28;20064;-63
2022/06/23 12:59:54;;;;;;;38.10;6.20;;;28.70;64.70;;;;;;5020800;28;20029;-62
2022/06/23 13:02:46;;;;;;;43.17;6.22;;;28.80;64.30;;;;;;5021090;28;20032;-62
2022/06/23 13:05:22;;;;;;;29.25;4.50;;;29.00;65.60;;;;;;5021563;28;20156;-62
2022/06/23 13:08:06;;;;;;;28.83;4.95;;;29.00;63.80;;;;;;5022794;28;20089;-62
2022/06/23 13:10:48;;;;;;;25.48;4.70;;;29.00;63.10;;;;;;5032384;28;20045;-62
2022/06/23 13:13:44;;;;;;;30.00;4.53;;;29.20;62.70;;;;;;5021658;28;20073;-62
2022/06/23 13:16:22;;;;;;;20.05;3.33;;;29.30;62.40;;;;;;5018605;28;20090;-62
2022/06/23 13:19:05;;;;;;;44.05;5.68;;;29.30;61.90;;;;;;5020156;28;20092;-62
2022/06/23 13:21:32;;;;;;;20.35;4.13;;;29.40;62.30;;;;;;5024193;28;20531;-62
2022/06/23 13:23:59;;;;;;;22.77;4.13;;;29.50;61.60;;;;;;5024288;28;20036;-62
2022/06/23 13:26:27;;;;;;;22.40;4.38;;;29.60;61.30;;;;;;5019979;28;20408;-63
2022/06/23 13:29:01;;;;;;;26.98;4.93;;;29.60;61.00;;;;;;5024775;28;20710;-61
2022/06/23 13:32:07;;;;;;;37.03;5.32;;;29.70;61.60;;;;;;5017957;28;20102;-62
2022/06/23 13:34:35;;;;;;;27.58;5.38;;;29.80;60.90;;;;;;5020818;28;20033;-62
2022/06/23 13:37:25;;;;;;;27.65;4.35;;;29.90;61.10;;;;;;5008105;28;20053;-65
2022/06/23 13:40:05;;;;;;;27.38;4.43;;;29.90;60.70;;;;;;5013995;28;20060;-62